WEATHER DATA

TODAY
Time Temp. Dewp. Hum. Bar. 1h Prec. 24h Prec.
00:01 1.9 0.9 93 1027.6 0.0000 0.0000
00:11 1.9 0.9 93 1027.6 0.0000 0.0000
00:22 1.9 0.9 93 1027.4 0.0000 0.0000
00:32 1.9 0.9 93 1027.4 0.0000 0.0000
00:41 1.9 0.9 93 1027.4 0.0000 0.0000
00:52 1.9 0.9 93 1027.3 0.0000 0.0000
01:02 1.9 0.9 93 1027.2 0.0000 0.0000
01:12 1.9 0.9 93 1027.1 0.0000 0.0000
01:21 1.9 0.9 93 1027.1 0.0000 0.0000
01:32 1.9 0.9 93 1027 0.0000 0.0000
01:42 1.9 0.9 93 1026.7 0.0000 0.0000
01:52 1.9 0.9 93 1026.5 0.0000 0.0000
02:02 1.9 0.9 93 1026.3 0.0000 0.0000
02:12 2 1 93 1026.1 0.0000 0.0000
02:22 2 1 93 1026 0.0000 0.0000
02:32 2 1 93 1026 0.0000 0.0000
02:43 2 1 93 1025.8 0.0000 0.0000
02:52 2 1 93 1025.8 0.0000 0.0000
03:02 1.9 0.9 93 1025.9 0.0000 0.0000
03:13 1.9 0.9 93 1025.7 0.0000 0.0000
03:23 1.9 0.9 93 1025.5 0.0000 0.0000
03:33 1.9 0.9 93 1025.3 0.0000 0.0000
03:42 1.9 0.9 93 1025.4 0.0000 0.0000
03:53 1.9 0.9 93 1025.1 0.0000 0.0000
04:03 1.9 0.9 93 1025.1 0.0000 0.0000
04:13 1.9 0.9 93 1025 0.0000 0.0000
04:23 1.9 0.9 93 1025 0.0000 0.0000
04:33 1.9 0.9 93 1025 0.0000 0.0000
04:43 1.9 0.7 92 1024.8 0.0000 0.0000
04:53 1.9 0.7 92 1024.1 0.0000 0.0000
05:04 1.9 0.7 92 1024.5 0.0000 0.0000
05:13 1.9 0.7 92 1024.8 0.0000 0.0000
05:23 1.9 0.7 92 1024.8 0.0000 0.0000
05:33 1.9 0.7 92 1024.7 0.0000 0.0000
05:44 1.9 0.7 92 1024.5 0.0000 0.0000
05:53 1.9 0.7 92 1024.4 0.0000 0.0000
06:03 1.9 0.7 92 1024.4 0.0000 0.0000
06:14 1.9 0.7 92 1024.2 0.0000 0.0000
06:24 1.9 0.7 92 1024.4 0.0000 0.0000
06:34 1.9 0.6 91 1024.1 0.0000 0.0000
06:44 1.9 0.6 91 1024 0.0000 0.0000
06:54 1.9 0.6 91 1023.9 0.0000 0.0000
07:04 1.8 0.5 91 1023.9 0.0000 0.0000
07:14 1.8 0.5 91 1023.7 0.0000 0.0000
07:24 1.7 0.4 91 1023.6 0.0000 0.0000
07:34 1.7 0.4 91 1023.4 0.0000 0.0000
07:44 1.7 0.2 90 1023.1 0.0000 0.0000
07:54 1.6 0.1 90 1023 0.0000 0.0000
08:05 1.6 0.1 90 1022.8 0.0000 0.0000
08:14 1.6 0.1 90 1022.9 0.0000 0.0000
08:24 1.5 0 90 1022.8 0.0000 0.0000
08:35 1.5 0 90 1022.6 0.0000 0.0000
08:45 1.5 0.2 91 1022.5 0.0000 0.0000
08:54 1.5 0.2 91 1022.6 0.0000 0.0000
09:05 1.5 0.2 91 1022.4 0.0000 0.0000
09:15 1.5 0.2 91 1022.1 0.0000 0.0000
09:25 1.6 0.3 91 1022.1 0.0000 0.0000
09:35 1.6 0.3 91 1022 0.0000 0.0000
09:45 1.7 0.4 91 1022 0.0000 0.0000
09:55 1.7 0.4 91 1021.9 0.0000 0.0000
10:05 1.8 0.5 91 1021.9 0.0000 0.0000
10:15 1.8 0.5 91 1021.9 0.0000 0.0000
10:26 1.9 0.6 91 1021.7 0.0000 0.0000
10:35 1.9 0.6 91 1021.6 0.0000 0.0000
10:45 1.9 0.6 91 1021.6 0.0000 0.0000
10:56 2 0.7 91 1021.7 0.0000 0.0000
11:06 2.1 0.9 92 1021.7 0.0000 0.0000
11:15 2.1 0.9 92 1021.5 0.0000 0.0000
11:26 2.2 1 92 1021.4 0.0000 0.0000
11:36 2.2 1 92 1021.3 0.0000 0.0000
11:46 2.2 1.2 93 1021.3 0.0000 0.0000
11:56 2.3 1.3 93 1021.2 0.1010 0.1000
12:06 2.3 1.3 93 1021.1 0.1010 0.1000
12:16 2.4 1.5 94 1021 0.1010 0.1000
12:26 2.4 1.5 94 1020.9 0.1010 0.1000
12:36 2.5 1.6 94 1020.8 0.2020 0.2000
12:46 2.5 1.6 94 1020.7 0.2020 0.2000
12:56 2.6 1.9 95 1020.7 0.1010 0.2000
13:06 2.6 1.9 95 1020.6 0.1010 0.2000
13:17 2.7 2 95 1020.6 0.2020 0.3000
13:27 2.7 2 95 1020.6 0.3030 0.4000
13:31 2.8 2.1 95 1020.5 0.3030 0.5000
13:41 2.8 2.1 95 1020.3 0.4040 0.6000
13:52 2.9 2.3 96 1020.2 0.5050 0.7000
14:02 2.9 2.3 96 1020 0.5050 0.7000
14:11 3 2.4 96 1019.9 0.5050 0.8000
14:22 3.1 2.5 96 1019.8 0.4040 0.8000
14:32 3.1 2.5 96 1019.6 0.4040 0.9000
14:42 3.2 2.6 96 1019.6 0.3030 1.0000
14:52 3.2 2.6 96 1019.6 0.4040 1.1000
15:02 3.3 2.7 96 1019.7 0.5050 1.2000
15:12 3.3 2.7 96 1019.7 0.4040 1.2000
15:22 3.4 2.8 96 1019.6 0.4040 1.3000
15:32 3.4 2.8 96 1019.6 0.3030 1.3000
15:43 3.5 3.1 97 1019.6 0.3030 1.4000
15:52 3.5 3.1 97 1019.6 0.4040 1.5000
16:02 3.5 3.1 97 1019.6 0.3030 1.5000
16:13 3.5 3.1 97 1019.6 0.2020 1.5000
16:23 3.6 3.2 97 1019.6 0.2020 1.5000
16:32 3.5 3.1 97 1019.5 0.1010 1.5000
16:43 3.6 3.2 97 1019.6 0.1010 1.5000
16:53 3.6 3.2 97 1019.6 0.2020 1.7000
17:03 3.5 3.1 97 1019.4 0.6060 2.1000
17:13 3.5 3.1 97 1019.5 0.6060 2.1000
17:23 3.5 3.1 97 1019.4 0.8080 2.3000
17:33 3.6 3.2 97 1019.5 0.8080 2.3000
17:43 3.6 3.2 97 1019.4 0.6060 2.3000
17:53 3.6 3.2 97 1019.4 0.4040 2.3000

DAY STATISTIC

2022-01-27
TEMPERATURE
AVERAGE
2.3
HIGH
3.6
16:23
LOW
1.5
08:24
PRESSURE
AVERAGE
1022.8
HIGH
1027.6
00:01
LOW
1019.4
17:03
DEWPOINT
AVERAGE
1.3
HIGH
3.2
16:23
LOW
0.0
08:24
HUMIDITY
AVERAGE
93
HIGH
97
15:43
LOW
90
07:44
PRECIPITATION
RAIN HOUR
0.8
RAIN DAY
2.3
TEMPERATURE (°C)
LOW
1.5
HIGH
3.6
AVERAGE
2.3
PRESSURE (hpa)
LOW
1019.4
HIGH
1027.6
AVERAGE
1022.8
DEVICE